sensor_id;sensor_type;location;lat;lon;timestamp;pressure;altitude;pressure_sealevel;temperature;humidity
48644;BME280;34928;37.302;-121.984;2022-09-20T00:02:32;100207.0;;;31.62;25.61
48644;BME280;34928;37.302;-121.984;2022-09-20T00:12:37;100214.0;;;31.89;25.56
48644;BME280;34928;37.302;-121.984;2022-09-20T00:22:42;100209.0;;;31.88;25.53
48644;BME280;34928;37.302;-121.984;2022-09-20T00:32:47;100219.0;;;31.61;25.40
48644;BME280;34928;37.302;-121.984;2022-09-20T00:42:52;100228.0;;;31.96;24.99
48644;BME280;34928;37.302;-121.984;2022-09-20T00:53:01;100234.0;;;31.99;24.91
48644;BME280;34928;37.302;-121.984;2022-09-20T01:03:08;100239.0;;;31.80;24.42
48644;BME280;34928;37.302;-121.984;2022-09-20T01:13:12;100245.0;;;31.62;24.12
48644;BME280;34928;37.302;-121.984;2022-09-20T01:33:36;100273.0;;;31.34;23.31
48644;BME280;34928;37.302;-121.984;2022-09-20T01:43:50;100278.0;;;31.50;23.29
48644;BME280;34928;37.302;-121.984;2022-09-20T01:54:16;100282.0;;;31.23;23.27
48644;BME280;34928;37.302;-121.984;2022-09-20T02:15:09;100301.0;;;31.14;23.29
48644;BME280;34928;37.302;-121.984;2022-09-20T02:25:32;100298.0;;;31.29;23.09
48644;BME280;34928;37.302;-121.984;2022-09-20T02:35:57;100314.0;;;31.25;23.12
48644;BME280;34928;37.302;-121.984;2022-09-20T02:46:12;100322.0;;;31.58;23.48
48644;BME280;34928;37.302;-121.984;2022-09-20T02:56:28;100335.0;;;31.79;23.77
48644;BME280;34928;37.302;-121.984;2022-09-20T03:06:40;100350.0;;;32.01;23.66
48644;BME280;34928;37.302;-121.984;2022-09-20T03:17:00;100369.0;;;31.90;23.82
48644;BME280;34928;37.302;-121.984;2022-09-20T03:27:15;100381.0;;;31.90;23.68
48644;BME280;34928;37.302;-121.984;2022-09-20T03:37:34;100388.0;;;31.91;23.79
48644;BME280;34928;37.302;-121.984;2022-09-20T03:47:58;100397.0;;;31.77;23.84
48644;BME280;34928;37.302;-121.984;2022-09-20T03:58:20;100416.0;;;31.62;23.81
48644;BME280;34928;37.302;-121.984;2022-09-20T04:08:42;100437.0;;;31.51;23.69
48644;BME280;34928;37.302;-121.984;2022-09-20T04:18:56;100436.0;;;31.75;23.61
48644;BME280;34928;37.302;-121.984;2022-09-20T04:39:34;100447.0;;;31.62;23.64
48644;BME280;34928;37.302;-121.984;2022-09-20T05:00:06;100472.0;;;31.18;23.97
48644;BME280;34928;37.302;-121.984;2022-09-20T05:10:31;100479.0;;;31.44;24.01
48644;BME280;34928;37.302;-121.984;2022-09-20T05:31:00;100488.0;;;31.21;24.06
48644;BME280;34928;37.302;-121.984;2022-09-20T05:41:11;100494.0;;;31.09;24.78
48644;BME280;34928;37.302;-121.984;2022-09-20T05:51:35;100508.0;;;31.37;25.10
48644;BME280;34928;37.302;-121.984;2022-09-20T06:01:59;100516.0;;;31.53;24.52
48644;BME280;34928;37.302;-121.984;2022-09-20T06:12:19;100511.0;;;31.56;24.63
48644;BME280;34928;37.302;-121.984;2022-09-20T06:22:31;100522.0;;;31.36;24.81
48644;BME280;34928;37.302;-121.984;2022-09-20T06:42:57;100541.0;;;31.74;24.85
48644;BME280;34928;37.302;-121.984;2022-09-20T06:53:03;100536.0;;;31.71;24.87
48644;BME280;34928;37.302;-121.984;2022-09-20T07:03:07;100533.0;;;31.23;24.83
48644;BME280;34928;37.302;-121.984;2022-09-20T07:13:12;100540.0;;;31.47;24.74
48644;BME280;34928;37.302;-121.984;2022-09-20T07:23:17;100529.0;;;31.40;24.70
48644;BME280;34928;37.302;-121.984;2022-09-20T07:33:22;100529.0;;;31.40;24.63
48644;BME280;34928;37.302;-121.984;2022-09-20T07:43:28;100531.0;;;31.56;24.62
48644;BME280;34928;37.302;-121.984;2022-09-20T07:53:32;100532.0;;;31.49;24.23
48644;BME280;34928;37.302;-121.984;2022-09-20T08:03:37;100527.0;;;30.36;23.51
48644;BME280;34928;37.302;-121.984;2022-09-20T08:13:44;100534.0;;;30.85;24.61
48644;BME280;34928;37.302;-121.984;2022-09-20T08:23:47;100539.0;;;30.77;24.40
48644;BME280;34928;37.302;-121.984;2022-09-20T08:33:53;100539.0;;;31.01;24.36
48644;BME280;34928;37.302;-121.984;2022-09-20T08:43:59;100541.0;;;31.02;24.32
48644;BME280;34928;37.302;-121.984;2022-09-20T08:54:10;100542.0;;;30.96;24.37
48644;BME280;34928;37.302;-121.984;2022-09-20T09:04:19;100560.0;;;30.86;24.48
48644;BME280;34928;37.302;-121.984;2022-09-20T09:14:26;100563.0;;;30.64;24.45
48644;BME280;34928;37.302;-121.984;2022-09-20T09:24:32;100563.0;;;30.83;24.48
48644;BME280;34928;37.302;-121.984;2022-09-20T09:34:37;100564.0;;;30.74;24.57
48644;BME280;34928;37.302;-121.984;2022-09-20T09:44:42;100558.0;;;30.66;24.62
48644;BME280;34928;37.302;-121.984;2022-09-20T09:54:49;100566.0;;;30.41;24.65
48644;BME280;34928;37.302;-121.984;2022-09-20T10:05:01;100562.0;;;30.53;24.65
48644;BME280;34928;37.302;-121.984;2022-09-20T10:15:19;100567.0;;;30.49;24.63
48644;BME280;34928;37.302;-121.984;2022-09-20T10:25:35;100572.0;;;30.44;24.67
48644;BME280;34928;37.302;-121.984;2022-09-20T10:35:54;100578.0;;;30.34;24.70
48644;BME280;34928;37.302;-121.984;2022-09-20T10:46:12;100574.0;;;30.29;24.67
48644;BME280;34928;37.302;-121.984;2022-09-20T10:56:27;100573.0;;;30.47;24.70
48644;BME280;34928;37.302;-121.984;2022-09-20T11:06:43;100568.0;;;30.12;24.72
48644;BME280;34928;37.302;-121.984;2022-09-20T11:16:54;100565.0;;;29.98;24.75
48644;BME280;34928;37.302;-121.984;2022-09-20T11:27:09;100566.0;;;29.94;24.78
48644;BME280;34928;37.302;-121.984;2022-09-20T11:37:18;100559.0;;;30.15;24.77
48644;BME280;34928;37.302;-121.984;2022-09-20T11:47:25;100551.0;;;30.15;24.73
48644;BME280;34928;37.302;-121.984;2022-09-20T11:57:32;100556.0;;;30.02;24.82
48644;BME280;34928;37.302;-121.984;2022-09-20T12:07:39;100554.0;;;30.18;24.83
48644;BME280;34928;37.302;-121.984;2022-09-20T12:27:57;100552.0;;;30.03;24.90
48644;BME280;34928;37.302;-121.984;2022-09-20T12:38:16;100553.0;;;29.76;24.90
48644;BME280;34928;37.302;-121.984;2022-09-20T12:48:33;100553.0;;;29.89;24.94
48644;BME280;34928;37.302;-121.984;2022-09-20T12:58:47;100557.0;;;29.60;24.95
48644;BME280;34928;37.302;-121.984;2022-09-20T13:08:56;100559.0;;;29.75;24.99
48644;BME280;34928;37.302;-121.984;2022-09-20T13:19:04;100561.0;;;29.73;24.93
48644;BME280;34928;37.302;-121.984;2022-09-20T13:29:08;100566.0;;;29.87;24.93
48644;BME280;34928;37.302;-121.984;2022-09-20T13:39:27;100586.0;;;29.57;24.93
48644;BME280;34928;37.302;-121.984;2022-09-20T13:49:32;100587.0;;;29.66;25.05
48644;BME280;34928;37.302;-121.984;2022-09-20T13:59:42;100586.0;;;29.69;25.16
48644;BME280;34928;37.302;-121.984;2022-09-20T14:09:47;100589.0;;;29.42;25.35
48644;BME280;34928;37.302;-121.984;2022-09-20T14:19:54;100599.0;;;29.49;25.72
48644;BME280;34928;37.302;-121.984;2022-09-20T14:29:57;100612.0;;;28.61;25.59
48644;BME280;34928;37.302;-121.984;2022-09-20T14:40:05;100620.0;;;28.24;26.02
48644;BME280;34928;37.302;-121.984;2022-09-20T14:50:25;100634.0;;;27.80;26.77
48644;BME280;34928;37.302;-121.984;2022-09-20T15:00:27;100632.0;;;27.95;27.31
48644;BME280;34928;37.302;-121.984;2022-09-20T15:10:32;100628.0;;;28.21;27.44
48644;BME280;34928;37.302;-121.984;2022-09-20T15:20:37;100632.0;;;28.04;27.61
48644;BME280;34928;37.302;-121.984;2022-09-20T15:30:42;100637.0;;;27.86;27.81
48644;BME280;34928;37.302;-121.984;2022-09-20T15:40:48;100631.0;;;27.94;27.93
48644;BME280;34928;37.302;-121.984;2022-09-20T15:51:04;100626.0;;;28.06;27.87
48644;BME280;34928;37.302;-121.984;2022-09-20T16:01:08;100633.0;;;28.01;28.09
48644;BME280;34928;37.302;-121.984;2022-09-20T16:11:14;100634.0;;;28.19;28.04
48644;BME280;34928;37.302;-121.984;2022-09-20T16:21:18;100642.0;;;28.31;27.97
48644;BME280;34928;37.302;-121.984;2022-09-20T16:31:33;100651.0;;;28.62;28.01
48644;BME280;34928;37.302;-121.984;2022-09-20T16:41:38;100652.0;;;28.71;27.74
48644;BME280;34928;37.302;-121.984;2022-09-20T16:51:43;100654.0;;;28.55;27.64
48644;BME280;34928;37.302;-121.984;2022-09-20T17:01:48;100647.0;;;28.67;27.50
48644;BME280;34928;37.302;-121.984;2022-09-20T17:11:52;100655.0;;;28.84;27.22
48644;BME280;34928;37.302;-121.984;2022-09-20T17:18:02;100655.0;;;28.87;27.10
48644;BME280;34928;37.302;-121.984;2022-09-20T17:28:07;100650.0;;;29.19;27.09
48644;BME280;34928;37.302;-121.984;2022-09-20T17:38:12;100646.0;;;29.43;26.98
48644;BME280;34928;37.302;-121.984;2022-09-20T17:48:17;100638.0;;;29.04;26.97
48644;BME280;34928;37.302;-121.984;2022-09-20T17:58:23;100640.0;;;29.17;26.96
48644;BME280;34928;37.302;-121.984;2022-09-20T18:08:27;100645.0;;;29.50;26.82
48644;BME280;34928;37.302;-121.984;2022-09-20T18:18:32;100641.0;;;29.32;26.58
48644;BME280;34928;37.302;-121.984;2022-09-20T18:28:37;100636.0;;;29.70;26.40
48644;BME280;34928;37.302;-121.984;2022-09-20T18:38:44;100637.0;;;29.57;26.34
48644;BME280;34928;37.302;-121.984;2022-09-20T18:48:47;100626.0;;;29.71;26.01
48644;BME280;34928;37.302;-121.984;2022-09-20T18:58:54;100621.0;;;29.72;25.91
48644;BME280;34928;37.302;-121.984;2022-09-20T19:09:02;100622.0;;;29.75;25.71
48644;BME280;34928;37.302;-121.984;2022-09-20T19:19:27;100615.0;;;29.87;25.49
48644;BME280;34928;37.302;-121.984;2022-09-20T19:29:38;100614.0;;;30.01;25.22
48644;BME280;34928;37.302;-121.984;2022-09-20T19:39:55;100609.0;;;30.11;24.71
48644;BME280;34928;37.302;-121.984;2022-09-20T19:50:13;100604.0;;;30.22;24.01
48644;BME280;34928;37.302;-121.984;2022-09-20T20:00:19;100606.0;;;30.13;23.81
48644;BME280;34928;37.302;-121.984;2022-09-20T20:10:27;100596.0;;;30.38;23.49
48644;BME280;34928;37.302;-121.984;2022-09-20T20:20:36;100586.0;;;30.29;23.23
48644;BME280;34928;37.302;-121.984;2022-09-20T20:30:44;100589.0;;;30.45;23.04
48644;BME280;34928;37.302;-121.984;2022-09-20T20:40:47;100588.0;;;30.68;22.75
48644;BME280;34928;37.302;-121.984;2022-09-20T20:51:01;100574.0;;;30.78;22.38
48644;BME280;34928;37.302;-121.984;2022-09-20T21:01:10;100575.0;;;30.34;22.10
48644;BME280;34928;37.302;-121.984;2022-09-20T21:11:18;100563.0;;;31.03;21.49
48644;BME280;34928;37.302;-121.984;2022-09-20T21:21:23;100556.0;;;30.79;21.42
48644;BME280;34928;37.302;-121.984;2022-09-20T21:31:29;100547.0;;;30.97;21.12
48644;BME280;34928;37.302;-121.984;2022-09-20T21:41:34;100542.0;;;31.00;21.61
48644;BME280;34928;37.302;-121.984;2022-09-20T21:51:39;100544.0;;;31.16;21.68
48644;BME280;34928;37.302;-121.984;2022-09-20T22:01:42;100537.0;;;31.26;21.97
48644;BME280;34928;37.302;-121.984;2022-09-20T22:11:48;100543.0;;;31.32;22.23
48644;BME280;34928;37.302;-121.984;2022-09-20T22:21:52;100538.0;;;31.17;22.49
48644;BME280;34928;37.302;-121.984;2022-09-20T22:31:57;100544.0;;;31.49;22.73
48644;BME280;34928;37.302;-121.984;2022-09-20T22:42:02;100542.0;;;31.53;22.80
48644;BME280;34928;37.302;-121.984;2022-09-20T22:52:07;100538.0;;;31.67;22.90
48644;BME280;34928;37.302;-121.984;2022-09-20T23:02:12;100541.0;;;31.74;23.07
48644;BME280;34928;37.302;-121.984;2022-09-20T23:12:17;100524.0;;;31.29;23.22
48644;BME280;34928;37.302;-121.984;2022-09-20T23:22:23;100526.0;;;31.90;23.12
48644;BME280;34928;37.302;-121.984;2022-09-20T23:32:27;100532.0;;;31.63;23.02
48644;BME280;34928;37.302;-121.984;2022-09-20T23:42:32;100538.0;;;31.48;22.51
48644;BME280;34928;37.302;-121.984;2022-09-20T23:52:37;100540.0;;;31.95;22.73
